Time,TemperatureF,DewpointF,PressureIn,WindDirection,WindDirectionDegrees,WindSpeedMPH,WindSpeedGustMPH,Humidity,HourlyPrecipIn,Conditions,Clouds,dailyrainin,SoftwareType,DateUTC
2014-01-01 00:01:00,33.1,20.3,29.99,SSW,195,7.0,22.0,59,0.00,,,0.00,meteohub,2014-01-01 07:01:00,
2014-01-01 00:07:00,32.7,20.3,29.98,South,191,9.0,16.0,60,0.00,,,0.00,meteohub,2014-01-01 07:07:00,
2014-01-01 00:13:00,32.5,20.7,29.97,SSW,198,7.0,13.0,61,0.00,,,0.00,meteohub,2014-01-01 07:13:00,
2014-01-01 00:19:00,32.5,20.7,29.97,SW,225,8.0,13.0,61,0.00,,,0.00,meteohub,2014-01-01 07:19:00,
2014-01-01 00:25:00,32.7,20.3,29.96,SSW,212,6.0,16.0,60,0.00,,,0.00,meteohub,2014-01-01 07:25:00,
2014-01-01 00:31:00,32.7,20.8,29.96,SW,220,7.0,16.0,61,0.00,,,0.00,meteohub,2014-01-01 07:31:00,
2014-01-01 00:34:00,32.5,20.7,29.96,SSW,213,7.0,16.0,61,0.00,,,0.00,meteohub,2014-01-01 07:34:00,
2014-01-01 00:40:00,32.5,20.7,29.95,SW,225,9.0,14.0,61,0.00,,,0.00,meteohub,2014-01-01 07:40:00,
2014-01-01 00:46:00,32.7,20.8,29.95,SW,226,8.0,17.0,61,0.00,,,0.00,meteohub,2014-01-01 07:46:00,
2014-01-01 00:52:00,33.1,21.0,29.94,SW,232,17.0,17.0,61,0.00,,,0.00,meteohub,2014-01-01 07:52:00,
2014-01-01 00:58:00,33.1,21.0,29.93,SW,234,12.0,17.0,61,0.00,,,0.00,meteohub,2014-01-01 07:58:00,
2014-01-01 01:04:00,32.9,20.8,29.93,SW,223,6.0,17.0,61,0.00,,,0.00,meteohub,2014-01-01 08:04:00,
2014-01-01 01:10:00,33.1,21.0,29.93,SW,220,11.0,16.0,61,0.00,,,0.00,meteohub,2014-01-01 08:10:00,
2014-01-01 01:12:00,33.3,21.2,29.93,SW,220,9.0,16.0,61,0.00,,,0.00,meteohub,2014-01-01 08:12:00,
2014-01-01 01:19:00,33.1,21.0,29.93,WSW,237,12.0,16.0,61,0.00,,,0.00,meteohub,2014-01-01 08:19:00,
2014-01-01 01:25:00,33.3,21.2,29.93,WSW,237,4.0,17.0,61,0.00,,,0.00,meteohub,2014-01-01 08:25:00,
2014-01-01 01:31:00,33.1,21.6,29.92,SW,228,10.0,17.0,62,0.00,,,0.00,meteohub,2014-01-01 08:31:00,
2014-01-01 01:37:00,33.1,21.9,29.92,SW,235,9.0,17.0,63,0.00,,,0.00,meteohub,2014-01-01 08:37:00,
2014-01-01 01:43:00,33.1,21.9,29.92,SW,229,15.0,16.0,63,0.00,,,0.00,meteohub,2014-01-01 08:43:00,
2014-01-01 01:49:00,33.3,22.1,29.92,WSW,247,9.0,16.0,63,0.00,,,0.00,meteohub,2014-01-01 08:49:00,
2014-01-01 01:55:00,33.3,22.5,29.91,WSW,237,11.0,23.0,64,0.00,,,0.00,meteohub,2014-01-01 08:55:00,
2014-01-01 02:01:00,33.3,22.5,29.91,West,273,29.0,29.0,64,0.00,,,0.00,meteohub,2014-01-01 09:01:00,
2014-01-01 02:07:00,33.3,22.8,29.91,WSW,248,9.0,29.0,65,0.00,,,0.00,meteohub,2014-01-01 09:07:00,
2014-01-01 02:13:00,33.3,22.8,29.90,WSW,251,16.0,29.0,65,0.00,,,0.00,meteohub,2014-01-01 09:13:00,
2014-01-01 02:19:00,33.3,22.8,29.88,WSW,243,17.0,29.0,65,0.00,,,0.00,meteohub,2014-01-01 09:19:00,
2014-01-01 02:25:00,33.1,23.0,29.88,WSW,243,15.0,36.0,66,0.00,,,0.00,meteohub,2014-01-01 09:25:00,
2014-01-01 02:31:00,32.9,22.8,29.88,WSW,243,26.0,31.0,66,0.00,,,0.00,meteohub,2014-01-01 09:31:00,
2014-01-01 02:37:00,32.9,22.8,29.88,WSW,243,19.0,33.0,66,0.00,,,0.00,meteohub,2014-01-01 09:37:00,
2014-01-01 02:43:00,33.1,22.6,29.88,WSW,245,19.0,34.0,65,0.00,,,0.00,meteohub,2014-01-01 09:43:00,
2014-01-01 02:49:00,33.1,22.6,29.89,WSW,251,27.0,34.0,65,0.00,,,0.00,meteohub,2014-01-01 09:49:00,
2014-01-01 02:56:00,33.1,22.6,29.89,WSW,249,12.0,32.0,65,0.00,,,0.00,meteohub,2014-01-01 09:56:00,
2014-01-01 03:02:00,33.1,23.0,29.90,SW,230,15.0,32.0,66,0.00,,,0.00,meteohub,2014-01-01 10:02:00,
2014-01-01 03:08:00,33.1,23.0,29.91,WSW,255,12.0,26.0,66,0.00,,,0.00,meteohub,2014-01-01 10:08:00,
2014-01-01 03:14:00,33.1,23.0,29.91,WSW,251,13.0,26.0,66,0.00,,,0.00,meteohub,2014-01-01 10:14:00,
2014-01-01 03:20:00,33.1,23.0,29.91,West,276,12.0,26.0,66,0.00,,,0.00,meteohub,2014-01-01 10:20:00,
2014-01-01 03:26:00,33.3,23.2,29.91,West,281,21.0,25.0,66,0.00,,,0.00,meteohub,2014-01-01 10:26:00,
2014-01-01 03:32:00,33.3,22.8,29.91,WSW,253,18.0,25.0,65,0.00,,,0.00,meteohub,2014-01-01 10:32:00,
2014-01-01 03:38:00,33.3,22.8,29.91,WSW,247,15.0,26.0,65,0.00,,,0.00,meteohub,2014-01-01 10:38:00,
2014-01-01 03:44:00,33.3,22.8,29.91,West,276,10.0,26.0,65,0.00,,,0.00,meteohub,2014-01-01 10:44:00,
2014-01-01 03:50:00,33.3,22.8,29.91,West,269,10.0,26.0,65,0.00,,,0.00,meteohub,2014-01-01 10:50:00,
2014-01-01 03:56:00,33.3,22.8,29.91,West,266,22.0,24.0,65,0.00,,,0.00,meteohub,2014-01-01 10:56:00,
2014-01-01 04:02:00,33.3,22.5,29.91,WSW,248,9.0,25.0,64,0.00,,,0.00,meteohub,2014-01-01 11:02:00,
2014-01-01 04:08:00,33.3,22.5,29.90,WSW,245,12.0,25.0,64,0.00,,,0.00,meteohub,2014-01-01 11:08:00,
2014-01-01 04:14:00,33.1,23.0,29.90,West,262,10.0,25.0,66,0.00,,,0.00,meteohub,2014-01-01 11:14:00,
2014-01-01 04:20:00,32.7,23.4,29.89,West,262,10.0,23.0,68,0.00,,,0.00,meteohub,2014-01-01 11:20:00,
2014-01-01 04:26:00,32.5,23.5,29.89,West,277,12.0,23.0,69,0.00,,,0.00,meteohub,2014-01-01 11:26:00,
2014-01-01 04:32:00,32.4,24.1,29.90,West,265,14.0,23.0,71,0.00,,,0.00,meteohub,2014-01-01 11:32:00,
2014-01-01 04:38:00,31.8,23.9,29.89,West,260,9.0,20.0,72,0.00,,,0.00,meteohub,2014-01-01 11:38:00,
2014-01-01 04:44:00,31.6,23.9,29.90,WSW,256,9.0,20.0,73,0.00,,,0.00,meteohub,2014-01-01 11:44:00,
2014-01-01 04:50:00,31.6,24.3,29.91,West,273,11.0,19.0,74,0.00,,,0.00,meteohub,2014-01-01 11:50:00,
2014-01-01 04:56:00,31.1,25.0,29.91,WSW,251,13.0,22.0,78,0.00,,,0.00,meteohub,2014-01-01 11:56:00,
2014-01-01 05:02:00,30.6,25.3,29.91,WSW,249,10.0,22.0,81,0.00,,,0.00,meteohub,2014-01-01 12:02:00,
2014-01-01 05:08:00,30.2,25.2,29.91,WSW,251,10.0,18.0,81,0.00,,,0.00,meteohub,2014-01-01 12:08:00,
2014-01-01 05:14:00,30.0,25.0,29.91,WSW,247,6.0,19.0,81,0.00,,,0.00,meteohub,2014-01-01 12:14:00,
2014-01-01 05:20:00,30.0,25.0,29.92,WSW,257,11.0,19.0,81,0.00,,,0.00,meteohub,2014-01-01 12:20:00,
2014-01-01 05:26:00,29.8,25.0,29.91,WSW,254,11.0,19.0,82,0.00,,,0.00,meteohub,2014-01-01 12:26:00,
2014-01-01 05:32:00,29.8,25.0,29.91,West,260,8.0,20.0,82,0.00,,,0.00,meteohub,2014-01-01 12:32:00,
2014-01-01 05:38:00,29.8,25.0,29.92,West,270,5.0,20.0,82,0.00,,,0.00,meteohub,2014-01-01 12:38:00,
2014-01-01 05:44:00,29.8,25.0,29.93,West,266,5.0,20.0,82,0.00,,,0.00,meteohub,2014-01-01 12:44:00,
2014-01-01 05:50:00,29.7,25.2,29.93,West,272,6.0,12.0,83,0.00,,,0.00,meteohub,2014-01-01 12:50:00,
2014-01-01 05:56:00,29.7,25.2,29.94,West,276,3.0,12.0,83,0.00,,,0.00,meteohub,2014-01-01 12:56:00,
2014-01-01 06:02:00,29.7,24.8,29.94,WNW,284,4.0,12.0,82,0.00,,,0.00,meteohub,2014-01-01 13:02:00,
2014-01-01 06:08:00,29.8,25.0,29.94,NW,320,6.0,11.0,82,0.00,,,0.00,meteohub,2014-01-01 13:08:00,
2014-01-01 06:14:00,29.7,25.3,29.95,NE,40,9.0,10.0,84,0.00,,,0.00,meteohub,2014-01-01 13:14:00,
2014-01-01 06:20:00,29.1,25.5,29.95,NNE,22,10.0,10.0,86,0.00,,,0.00,meteohub,2014-01-01 13:20:00,
2014-01-01 06:26:00,28.6,25.2,29.96,NNW,347,10.0,16.0,87,0.00,,,0.00,meteohub,2014-01-01 13:26:00,
2014-01-01 06:32:00,28.0,24.6,29.96,NNW,338,9.0,16.0,87,0.00,,,0.00,meteohub,2014-01-01 13:32:00,
2014-01-01 06:39:00,27.9,24.4,29.96,North,349,7.0,16.0,87,0.00,,,0.00,meteohub,2014-01-01 13:39:00,
2014-01-01 06:45:00,27.9,24.3,29.96,NW,318,5.0,15.0,86,0.00,,,0.00,meteohub,2014-01-01 13:45:00,
2014-01-01 06:51:00,27.9,23.9,29.96,NNW,334,4.0,13.0,85,0.00,,,0.00,meteohub,2014-01-01 13:51:00,
2014-01-01 06:57:00,28.0,23.9,29.97,NNW,332,2.0,10.0,84,0.00,,,0.00,meteohub,2014-01-01 13:57:00,
2014-01-01 07:03:00,28.0,23.0,29.97,NNW,332,4.0,9.0,81,0.00,,,0.00,meteohub,2014-01-01 14:03:00,
2014-01-01 07:09:00,28.2,22.8,29.97,West,276,7.0,7.0,80,0.00,,,0.00,meteohub,2014-01-01 14:09:00,
2014-01-01 07:15:00,28.4,22.1,29.97,West,267,8.0,9.0,77,0.00,,,0.00,meteohub,2014-01-01 14:15:00,
2014-01-01 07:21:00,28.4,21.6,29.97,West,259,3.0,9.0,75,0.00,,,0.00,meteohub,2014-01-01 14:21:00,
2014-01-01 07:27:00,28.2,21.4,29.98,West,263,4.0,9.0,75,0.00,,,0.00,meteohub,2014-01-01 14:27:00,
2014-01-01 07:33:00,28.2,21.4,29.99,West,268,0.0,9.0,75,0.00,,,0.00,meteohub,2014-01-01 14:33:00,
2014-01-01 07:39:00,28.8,19.9,29.99,West,276,4.0,8.0,69,0.00,,,0.00,meteohub,2014-01-01 14:39:00,
2014-01-01 07:45:00,28.8,19.9,30.00,West,276,2.0,10.0,69,0.00,,,0.00,meteohub,2014-01-01 14:45:00,
2014-01-01 07:51:00,28.9,19.0,30.00,West,263,8.0,10.0,66,0.00,,,0.00,meteohub,2014-01-01 14:51:00,
2014-01-01 07:57:00,28.8,19.6,30.01,West,279,9.0,14.0,68,0.00,,,0.00,meteohub,2014-01-01 14:57:00,
2014-01-01 08:03:00,28.6,19.4,30.01,West,279,2.0,14.0,68,0.00,,,0.00,meteohub,2014-01-01 15:03:00,
2014-01-01 08:09:00,28.6,19.0,30.01,West,267,9.0,14.0,67,0.00,,,0.00,meteohub,2014-01-01 15:09:00,
2014-01-01 08:15:00,28.6,19.4,30.02,West,276,2.0,15.0,68,0.00,,,0.00,meteohub,2014-01-01 15:15:00,
2014-01-01 08:21:00,28.6,18.7,30.01,West,268,15.0,15.0,66,0.00,,,0.00,meteohub,2014-01-01 15:21:00,
2014-01-01 08:27:00,28.8,19.2,30.02,West,276,8.0,18.0,67,0.00,,,0.00,meteohub,2014-01-01 15:27:00,
2014-01-01 08:33:00,28.8,18.5,30.02,WNW,291,5.0,18.0,65,0.00,,,0.00,meteohub,2014-01-01 15:33:00,
2014-01-01 08:39:00,29.1,17.4,30.02,WSW,251,9.0,18.0,61,0.00,,,0.00,meteohub,2014-01-01 15:39:00,
2014-01-01 08:45:00,29.3,16.7,30.03,WSW,256,10.0,16.0,59,0.00,,,0.00,meteohub,2014-01-01 15:45:00,
2014-01-01 08:51:00,29.3,16.0,30.03,WSW,252,7.0,16.0,57,0.00,,,0.00,meteohub,2014-01-01 15:51:00,
2014-01-01 08:57:00,29.5,15.3,30.03,WSW,257,4.0,17.0,55,0.00,,,0.00,meteohub,2014-01-01 15:57:00,
2014-01-01 09:03:00,29.8,15.3,30.04,West,278,6.0,17.0,54,0.00,,,0.00,meteohub,2014-01-01 16:03:00,
2014-01-01 09:09:00,30.9,15.4,30.04,West,263,12.0,17.0,52,0.00,,,0.00,meteohub,2014-01-01 16:09:00,
2014-01-01 09:15:00,31.3,15.3,30.04,West,270,6.0,17.0,51,0.00,,,0.00,meteohub,2014-01-01 16:15:00,
2014-01-01 09:21:00,31.6,16.0,30.04,NW,326,8.0,17.0,52,0.00,,,0.00,meteohub,2014-01-01 16:21:00,
2014-01-01 09:27:00,31.8,17.1,30.05,West,259,8.0,17.0,54,0.00,,,0.00,meteohub,2014-01-01 16:27:00,
2014-01-01 09:33:00,32.2,14.7,30.05,WSW,249,9.0,17.0,48,0.00,,,0.00,meteohub,2014-01-01 16:33:00,
2014-01-01 09:39:00,32.4,15.8,30.05,West,275,12.0,17.0,50,0.00,,,0.00,meteohub,2014-01-01 16:39:00,
2014-01-01 09:45:00,32.0,16.0,30.05,SW,233,6.0,18.0,51,0.00,,,0.00,meteohub,2014-01-01 16:45:00,
2014-01-01 09:51:00,32.2,16.2,30.04,SSW,212,17.0,18.0,51,0.00,,,0.00,meteohub,2014-01-01 16:51:00,
2014-01-01 09:57:00,32.4,16.3,30.04,WSW,244,9.0,24.0,51,0.00,,,0.00,meteohub,2014-01-01 16:57:00,
2014-01-01 10:03:00,32.4,15.8,30.04,SW,232,17.0,24.0,50,0.00,,,0.00,meteohub,2014-01-01 17:03:00,
2014-01-01 10:09:00,32.5,15.1,30.04,WSW,251,11.0,24.0,48,0.00,,,0.00,meteohub,2014-01-01 17:09:00,
2014-01-01 10:15:00,32.9,14.4,30.05,WSW,244,11.0,24.0,46,0.00,,,0.00,meteohub,2014-01-01 17:15:00,
2014-01-01 10:21:00,32.9,15.4,30.05,SW,216,11.0,23.0,48,0.00,,,0.00,meteohub,2014-01-01 17:21:00,
2014-01-01 10:28:00,32.9,14.9,30.05,SW,218,12.0,22.0,47,0.00,,,0.00,meteohub,2014-01-01 17:28:00,
2014-01-01 10:34:00,32.9,15.8,30.04,SW,220,15.0,21.0,49,0.00,,,0.00,meteohub,2014-01-01 17:34:00,
2014-01-01 10:40:00,33.1,16.0,30.05,SW,223,16.0,20.0,49,0.00,,,0.00,meteohub,2014-01-01 17:40:00,
2014-01-01 10:46:00,33.4,15.4,30.04,WSW,243,12.0,19.0,47,0.00,,,0.00,meteohub,2014-01-01 17:46:00,
2014-01-01 10:52:00,33.6,14.0,30.04,West,260,19.0,24.0,44,0.00,,,0.00,meteohub,2014-01-01 17:52:00,
2014-01-01 10:58:00,33.4,15.4,30.05,SW,214,17.0,25.0,47,0.00,,,0.00,meteohub,2014-01-01 17:58:00,
2014-01-01 11:04:00,33.4,15.4,30.04,WSW,241,14.0,25.0,47,0.00,,,0.00,meteohub,2014-01-01 18:04:00,
2014-01-01 11:10:00,34.0,15.4,30.04,West,259,11.0,25.0,46,0.00,,,0.00,meteohub,2014-01-01 18:10:00,
2014-01-01 11:16:00,34.0,14.9,30.04,WSW,237,13.0,25.0,45,0.00,,,0.00,meteohub,2014-01-01 18:16:00,
2014-01-01 11:22:00,34.0,14.9,30.03,WSW,245,12.0,21.0,45,0.00,,,0.00,meteohub,2014-01-01 18:22:00,
2014-01-01 11:28:00,34.2,14.5,30.04,WSW,239,15.0,21.0,44,0.00,,,0.00,meteohub,2014-01-01 18:28:00,
2014-01-01 11:34:00,34.5,14.9,30.04,WSW,239,22.0,22.0,44,0.00,,,0.00,meteohub,2014-01-01 18:34:00,
2014-01-01 11:40:00,34.5,10.9,30.03,West,270,9.0,25.0,37,0.00,,,0.00,meteohub,2014-01-01 18:40:00,
2014-01-01 11:46:00,34.7,12.9,30.03,WSW,249,12.0,27.0,40,0.00,,,0.00,meteohub,2014-01-01 18:46:00,
2014-01-01 11:52:00,34.9,11.8,30.03,West,280,22.0,27.0,38,0.00,,,0.00,meteohub,2014-01-01 18:52:00,
2014-01-01 11:58:00,34.5,10.9,30.03,West,277,16.0,27.0,37,0.00,,,0.00,meteohub,2014-01-01 18:58:00,
2014-01-01 12:04:00,34.9,12.9,30.03,West,264,12.0,29.0,40,0.00,,,0.00,meteohub,2014-01-01 19:04:00,
2014-01-01 12:10:00,34.9,10.6,30.04,West,274,18.0,28.0,36,0.00,,,0.00,meteohub,2014-01-01 19:10:00,
2014-01-01 12:16:00,34.7,10.4,30.04,West,264,12.0,28.0,36,0.00,,,0.00,meteohub,2014-01-01 19:16:00,
2014-01-01 12:22:00,35.1,12.6,30.04,WSW,241,22.0,28.0,39,0.00,,,0.00,meteohub,2014-01-01 19:22:00,
2014-01-01 12:28:00,34.9,11.8,30.05,West,262,11.0,24.0,38,0.00,,,0.00,meteohub,2014-01-01 19:28:00,
2014-01-01 12:34:00,35.1,12.0,30.05,West,274,12.0,24.0,38,0.00,,,0.00,meteohub,2014-01-01 19:34:00,
2014-01-01 12:40:00,35.2,10.4,30.04,WNW,287,13.0,24.0,35,0.00,,,0.00,meteohub,2014-01-01 19:40:00,
2014-01-01 12:46:00,35.1,12.0,30.05,West,264,8.0,24.0,38,0.00,,,0.00,meteohub,2014-01-01 19:46:00,
2014-01-01 12:52:00,35.1,10.8,30.05,WSW,244,11.0,30.0,36,0.00,,,0.00,meteohub,2014-01-01 19:52:00,
2014-01-01 12:58:00,35.2,11.5,30.05,WSW,240,14.0,30.0,37,0.00,,,0.00,meteohub,2014-01-01 19:58:00,
2014-01-01 13:04:00,35.4,11.7,30.05,West,266,7.0,30.0,37,0.00,,,0.00,meteohub,2014-01-01 20:04:00,
2014-01-01 13:10:00,35.4,11.1,30.05,WNW,301,6.0,26.0,36,0.00,,,0.00,meteohub,2014-01-01 20:10:00,
2014-01-01 13:16:00,35.8,12.0,30.05,WSW,245,10.0,26.0,37,0.00,,,0.00,meteohub,2014-01-01 20:16:00,
2014-01-01 13:22:00,35.6,12.6,30.05,WSW,257,13.0,26.0,38,0.00,,,0.00,meteohub,2014-01-01 20:22:00,
2014-01-01 13:28:00,35.2,10.4,30.06,West,278,17.0,21.0,35,0.00,,,0.00,meteohub,2014-01-01 20:28:00,
2014-01-01 13:34:00,34.9,10.6,30.06,West,264,8.0,26.0,36,0.00,,,0.00,meteohub,2014-01-01 20:34:00,
2014-01-01 13:40:00,35.2,10.4,30.06,WSW,249,14.0,26.0,35,0.00,,,0.00,meteohub,2014-01-01 20:40:00,
2014-01-01 13:46:00,35.4,11.7,30.06,WSW,247,12.0,25.0,37,0.00,,,0.00,meteohub,2014-01-01 20:46:00,
2014-01-01 13:52:00,36.1,11.1,30.06,WSW,253,17.0,24.0,35,0.00,,,0.00,meteohub,2014-01-01 20:52:00,
2014-01-01 13:58:00,35.4,10.4,30.07,WSW,237,16.0,24.0,35,0.00,,,0.00,meteohub,2014-01-01 20:58:00,
2014-01-01 14:05:00,35.2,10.4,30.06,West,266,9.0,25.0,35,0.00,,,0.00,meteohub,2014-01-01 21:05:00,
2014-01-01 14:11:00,35.1,10.2,30.07,SW,231,5.0,25.0,35,0.00,,,0.00,meteohub,2014-01-01 21:11:00,
2014-01-01 14:17:00,34.9,11.3,30.07,WSW,241,11.0,22.0,37,0.00,,,0.00,meteohub,2014-01-01 21:17:00,
2014-01-01 14:23:00,35.1,11.5,30.07,WSW,243,6.0,24.0,37,0.00,,,0.00,meteohub,2014-01-01 21:23:00,
2014-01-01 14:29:00,34.9,10.0,30.07,West,278,13.0,24.0,35,0.00,,,0.00,meteohub,2014-01-01 21:29:00,
2014-01-01 14:35:00,34.7,10.4,30.08,WSW,247,10.0,29.0,36,0.00,,,0.00,meteohub,2014-01-01 21:35:00,
2014-01-01 14:41:00,34.7,10.4,30.08,West,268,16.0,24.0,36,0.00,,,0.00,meteohub,2014-01-01 21:41:00,
2014-01-01 14:47:00,34.7,10.4,30.08,WSW,247,12.0,24.0,36,0.00,,,0.00,meteohub,2014-01-01 21:47:00,
2014-01-01 14:53:00,34.5,10.9,30.08,WSW,245,18.0,24.0,37,0.00,,,0.00,meteohub,2014-01-01 21:53:00,
2014-01-01 14:59:00,34.3,10.2,30.09,WSW,252,11.0,24.0,36,0.00,,,0.00,meteohub,2014-01-01 21:59:00,
2014-01-01 15:05:00,34.5,10.2,30.09,WSW,249,11.0,24.0,36,0.00,,,0.00,meteohub,2014-01-01 22:05:00,
2014-01-01 15:11:00,34.5,10.2,30.09,WSW,253,23.0,27.0,36,0.00,,,0.00,meteohub,2014-01-01 22:11:00,
2014-01-01 15:17:00,34.3,10.8,30.10,West,274,16.0,27.0,37,0.00,,,0.00,meteohub,2014-01-01 22:17:00,
2014-01-01 15:23:00,34.2,10.6,30.10,WSW,255,13.0,27.0,37,0.00,,,0.00,meteohub,2014-01-01 22:23:00,
2014-01-01 15:29:00,34.2,10.6,30.11,WSW,240,12.0,27.0,37,0.00,,,0.00,meteohub,2014-01-01 22:29:00,
2014-01-01 15:35:00,33.8,10.9,30.11,WSW,251,14.0,24.0,38,0.00,,,0.00,meteohub,2014-01-01 22:35:00,
2014-01-01 15:41:00,33.6,10.0,30.12,West,272,18.0,23.0,37,0.00,,,0.00,meteohub,2014-01-01 22:41:00,
2014-01-01 15:47:00,33.4,10.0,30.12,West,281,23.0,23.0,37,0.00,,,0.00,meteohub,2014-01-01 22:47:00,
2014-01-01 15:53:00,33.4,10.0,30.12,WSW,253,10.0,28.0,37,0.00,,,0.00,meteohub,2014-01-01 22:53:00,
2014-01-01 15:59:00,33.3,10.4,30.12,West,266,12.0,28.0,38,0.00,,,0.00,meteohub,2014-01-01 22:59:00,
2014-01-01 16:05:00,33.1,10.2,30.13,West,270,10.0,23.0,38,0.00,,,0.00,meteohub,2014-01-01 23:05:00,
2014-01-01 16:11:00,32.5,10.4,30.13,WNW,288,10.0,24.0,39,0.00,,,0.00,meteohub,2014-01-01 23:11:00,
2014-01-01 16:17:00,32.2,10.6,30.14,West,266,9.0,24.0,40,0.00,,,0.00,meteohub,2014-01-01 23:17:00,
2014-01-01 16:23:00,32.0,10.4,30.14,West,261,8.0,22.0,40,0.00,,,0.00,meteohub,2014-01-01 23:23:00,
2014-01-01 16:29:00,31.3,10.2,30.14,West,266,12.0,22.0,41,0.00,,,0.00,meteohub,2014-01-01 23:29:00,
2014-01-01 16:35:00,30.9,10.0,30.14,West,268,10.0,21.0,41,0.00,,,0.00,meteohub,2014-01-01 23:35:00,
2014-01-01 16:41:00,30.7,10.4,30.15,WSW,257,9.0,21.0,42,0.00,,,0.00,meteohub,2014-01-01 23:41:00,
2014-01-01 16:47:00,30.4,10.6,30.15,West,265,14.0,16.0,43,0.00,,,0.00,meteohub,2014-01-01 23:47:00,
2014-01-01 16:53:00,30.4,10.6,30.15,West,274,13.0,20.0,43,0.00,,,0.00,meteohub,2014-01-01 23:53:00,
2014-01-01 16:59:00,30.4,10.6,30.15,West,266,7.0,23.0,43,0.00,,,0.00,meteohub,2014-01-01 23:59:00,
2014-01-01 17:05:00,30.0,10.2,30.15,West,272,19.0,23.0,43,0.00,,,0.00,meteohub,2014-01-02 00:05:00,
2014-01-01 17:11:00,30.0,10.2,30.16,West,270,17.0,23.0,43,0.00,,,0.00,meteohub,2014-01-02 00:11:00,
2014-01-01 17:17:00,29.8,10.0,30.16,West,278,13.0,23.0,43,0.00,,,0.00,meteohub,2014-01-02 00:17:00,
2014-01-01 17:23:00,29.8,10.6,30.16,WNW,292,18.0,23.0,44,0.00,,,0.00,meteohub,2014-01-02 00:23:00,
2014-01-01 17:29:00,29.8,10.0,30.16,WSW,256,14.0,23.0,43,0.00,,,0.00,meteohub,2014-01-02 00:29:00,
2014-01-01 17:35:00,29.7,10.4,30.16,West,270,10.0,27.0,44,0.00,,,0.00,meteohub,2014-01-02 00:35:00,
2014-01-01 17:42:00,29.5,10.2,30.17,West,272,9.0,25.0,44,0.00,,,0.00,meteohub,2014-01-02 00:42:00,
2014-01-01 17:48:00,29.1,10.4,30.17,West,272,14.0,24.0,45,0.00,,,0.00,meteohub,2014-01-02 00:48:00,
2014-01-01 17:54:00,28.9,10.2,30.17,West,263,15.0,24.0,45,0.00,,,0.00,meteohub,2014-01-02 00:54:00,
2014-01-01 18:00:00,29.1,10.4,30.17,WNW,290,11.0,21.0,45,0.00,,,0.00,meteohub,2014-01-02 01:00:00,
2014-01-01 18:06:00,28.9,10.2,30.17,WNW,301,11.0,26.0,45,0.00,,,0.00,meteohub,2014-01-02 01:06:00,
2014-01-01 18:12:00,28.9,10.2,30.17,West,278,10.0,26.0,45,0.00,,,0.00,meteohub,2014-01-02 01:12:00,
2014-01-01 18:18:00,28.8,10.6,30.18,West,278,14.0,22.0,46,0.00,,,0.00,meteohub,2014-01-02 01:18:00,
2014-01-01 18:24:00,28.6,10.4,30.19,West,271,8.0,22.0,46,0.00,,,0.00,meteohub,2014-01-02 01:24:00,
2014-01-01 18:30:00,28.6,10.4,30.19,West,265,5.0,24.0,46,0.00,,,0.00,meteohub,2014-01-02 01:30:00,
2014-01-01 18:36:00,28.6,10.4,30.20,WNW,282,10.0,24.0,46,0.00,,,0.00,meteohub,2014-01-02 01:36:00,
2014-01-01 18:42:00,28.6,10.4,30.21,West,264,18.0,24.0,46,0.00,,,0.00,meteohub,2014-01-02 01:42:00,
2014-01-01 18:48:00,28.6,9.9,30.21,WNW,293,6.0,20.0,45,0.00,,,0.00,meteohub,2014-01-02 01:48:00,
2014-01-01 18:54:00,28.2,9.7,30.21,West,271,5.0,20.0,45,0.00,,,0.00,meteohub,2014-01-02 01:54:00,
2014-01-01 19:00:00,27.9,8.2,30.22,WNW,302,4.0,18.0,43,0.00,,,0.00,meteohub,2014-01-02 02:00:00,
2014-01-01 19:06:00,27.7,8.1,30.22,West,276,3.0,16.0,43,0.00,,,0.00,meteohub,2014-01-02 02:06:00,
2014-01-01 19:12:00,27.3,7.7,30.22,West,275,5.0,14.0,43,0.00,,,0.00,meteohub,2014-01-02 02:12:00,
2014-01-01 19:18:00,27.1,7.5,30.22,West,274,2.0,10.0,43,0.00,,,0.00,meteohub,2014-01-02 02:18:00,
2014-01-01 19:24:00,27.3,8.2,30.22,WSW,257,6.0,9.0,44,0.00,,,0.00,meteohub,2014-01-02 02:24:00,
2014-01-01 19:30:00,27.5,7.3,30.22,West,264,10.0,15.0,42,0.00,,,0.00,meteohub,2014-01-02 02:30:00,
2014-01-01 19:36:00,27.5,6.8,30.22,West,279,9.0,15.0,41,0.00,,,0.00,meteohub,2014-01-02 02:36:00,
2014-01-01 19:42:00,27.7,6.4,30.23,WNW,283,9.0,15.0,40,0.00,,,0.00,meteohub,2014-01-02 02:42:00,
2014-01-01 19:48:00,27.1,7.2,30.23,WNW,290,5.0,15.0,42,0.00,,,0.00,meteohub,2014-01-02 02:48:00,
2014-01-01 19:54:00,27.0,6.4,30.23,WNW,290,2.0,15.0,41,0.00,,,0.00,meteohub,2014-01-02 02:54:00,
2014-01-01 20:00:00,26.8,6.8,30.24,WNW,290,4.0,8.0,42,0.00,,,0.00,meteohub,2014-01-02 03:00:00,
2014-01-01 20:06:00,26.8,4.6,30.24,WNW,289,2.0,6.0,38,0.00,,,0.00,meteohub,2014-01-02 03:06:00,
2014-01-01 20:12:00,26.2,4.6,30.24,WNW,286,5.0,7.0,39,0.00,,,0.00,meteohub,2014-01-02 03:12:00,
2014-01-01 20:18:00,26.2,5.2,30.24,WNW,284,4.0,8.0,40,0.00,,,0.00,meteohub,2014-01-02 03:18:00,
2014-01-01 20:24:00,25.9,5.4,30.24,West,281,5.0,8.0,41,0.00,,,0.00,meteohub,2014-01-02 03:24:00,
2014-01-01 20:30:00,25.3,5.4,30.24,West,280,5.0,10.0,42,0.00,,,0.00,meteohub,2014-01-02 03:30:00,
2014-01-01 20:36:00,25.0,6.1,30.24,West,280,2.0,10.0,44,0.00,,,0.00,meteohub,2014-01-02 03:36:00,
2014-01-01 20:42:00,25.0,4.6,30.24,West,280,0.0,9.0,41,0.00,,,0.00,meteohub,2014-01-02 03:42:00,
2014-01-01 20:48:00,25.0,5.2,30.24,WNW,284,6.0,6.0,42,0.00,,,0.00,meteohub,2014-01-02 03:48:00,
2014-01-01 20:54:00,24.4,6.1,30.24,WNW,295,0.0,7.0,45,0.00,,,0.00,meteohub,2014-01-02 03:54:00,
2014-01-01 21:00:00,24.3,5.5,30.25,WNW,295,2.0,8.0,44,0.00,,,0.00,meteohub,2014-01-02 04:00:00,
2014-01-01 21:07:00,23.5,5.7,30.25,WSW,250,12.0,12.0,46,0.00,,,0.00,meteohub,2014-01-02 04:07:00,
2014-01-01 21:12:00,25.0,5.7,30.25,West,273,7.0,12.0,43,0.00,,,0.00,meteohub,2014-01-02 04:12:00,
2014-01-01 21:19:00,25.9,5.9,30.25,NW,326,3.0,12.0,42,0.00,,,0.00,meteohub,2014-01-02 04:19:00,
2014-01-01 21:25:00,25.9,4.8,30.25,WNW,284,2.0,17.0,40,0.00,,,0.00,meteohub,2014-01-02 04:25:00,
2014-01-01 21:31:00,26.1,5.0,30.25,WNW,284,3.0,12.0,40,0.00,,,0.00,meteohub,2014-01-02 04:31:00,
2014-01-01 21:37:00,25.3,5.0,30.26,WNW,285,6.0,10.0,41,0.00,,,0.00,meteohub,2014-01-02 04:37:00,
2014-01-01 21:43:00,24.4,5.2,30.27,NW,305,6.0,7.0,43,0.00,,,0.00,meteohub,2014-01-02 04:43:00,
2014-01-01 21:49:00,23.7,5.0,30.27,NW,315,3.0,7.0,44,0.00,,,0.00,meteohub,2014-01-02 04:49:00,
2014-01-01 21:55:00,23.2,5.0,30.28,WNW,303,2.0,8.0,45,0.00,,,0.00,meteohub,2014-01-02 04:55:00,
2014-01-01 22:01:00,23.4,5.2,30.28,NW,304,4.0,8.0,45,0.00,,,0.00,meteohub,2014-01-02 05:01:00,
2014-01-01 22:02:00,23.4,4.1,30.28,NW,304,4.0,8.0,43,0.00,,,0.00,meteohub,2014-01-02 05:02:00,
2014-01-01 22:04:00,23.4,4.6,30.28,NW,304,5.0,8.0,44,0.00,,,0.00,meteohub,2014-01-02 05:04:00,
2014-01-01 22:10:00,23.2,4.5,30.28,NW,304,3.0,6.0,44,0.00,,,0.00,meteohub,2014-01-02 05:10:00,
2014-01-01 22:16:00,22.8,4.1,30.28,NW,304,3.0,6.0,44,0.00,,,0.00,meteohub,2014-01-02 05:16:00,
2014-01-01 22:22:00,23.9,4.1,30.28,NW,326,7.0,7.0,42,0.00,,,0.00,meteohub,2014-01-02 05:22:00,
2014-01-01 22:28:00,24.6,4.8,30.28,NW,312,4.0,7.0,42,0.00,,,0.00,meteohub,2014-01-02 05:28:00,
2014-01-01 22:31:00,24.6,3.7,30.28,NW,314,3.0,9.0,40,0.00,,,0.00,meteohub,2014-01-02 05:31:00,
2014-01-01 22:37:00,25.0,4.1,30.28,WNW,291,2.0,9.0,40,0.00,,,0.00,meteohub,2014-01-02 05:37:00,
2014-01-01 22:43:00,24.8,4.5,30.28,WNW,290,9.0,9.0,41,0.00,,,0.00,meteohub,2014-01-02 05:43:00,
2014-01-01 22:49:00,23.7,3.9,30.28,NNW,345,6.0,10.0,42,0.00,,,0.00,meteohub,2014-01-02 05:49:00,
2014-01-01 22:55:00,24.3,4.5,30.27,North,356,3.0,11.0,42,0.00,,,0.00,meteohub,2014-01-02 05:55:00,
2014-01-01 23:01:00,25.2,4.8,30.27,NW,318,2.0,16.0,41,0.00,,,0.00,meteohub,2014-01-02 06:01:00,
2014-01-01 23:07:00,25.3,4.5,30.27,NNW,334,3.0,16.0,40,0.00,,,0.00,meteohub,2014-01-02 06:07:00,
2014-01-01 23:13:00,25.2,5.4,30.27,WNW,303,5.0,13.0,42,0.00,,,0.00,meteohub,2014-01-02 06:13:00,
2014-01-01 23:19:00,25.3,5.4,30.27,WNW,299,4.0,13.0,42,0.00,,,0.00,meteohub,2014-01-02 06:19:00,
2014-01-01 23:25:00,25.7,5.7,30.27,WSW,255,3.0,11.0,42,0.00,,,0.00,meteohub,2014-01-02 06:25:00,
2014-01-01 23:31:00,26.1,6.1,30.27,WSW,250,5.0,15.0,42,0.00,,,0.00,meteohub,2014-01-02 06:31:00,
2014-01-01 23:37:00,27.0,6.4,30.27,WSW,258,10.0,15.0,41,0.00,,,0.00,meteohub,2014-01-02 06:37:00,
2014-01-01 23:43:00,27.3,6.3,30.26,West,267,12.0,15.0,40,0.00,,,0.00,meteohub,2014-01-02 06:43:00,
2014-01-01 23:49:00,27.5,6.3,30.27,West,280,5.0,18.0,40,0.00,,,0.00,meteohub,2014-01-02 06:49:00,
2014-01-01 23:55:00,27.3,6.3,30.27,WNW,294,3.0,24.0,40,0.00,,,0.00,meteohub,2014-01-02 06:55:00,